sensor_id;sensor_type;location;lat;lon;timestamp;P1;durP1;ratioP1;P2;durP2;ratioP2
26977;SDS011;56314;48.088;11.642;2024-01-06T00:00:15;9.82;;;5.75;;
26977;SDS011;56314;48.088;11.642;2024-01-06T00:02:41;9.43;;;6.65;;
26977;SDS011;56314;48.088;11.642;2024-01-06T00:05:07;12.23;;;6.95;;
26977;SDS011;56314;48.088;11.642;2024-01-06T00:07:32;9.13;;;6.55;;
26977;SDS011;56314;48.088;11.642;2024-01-06T00:09:58;11.85;;;6.97;;
26977;SDS011;56314;48.088;11.642;2024-01-06T00:12:23;12.10;;;6.90;;
26977;SDS011;56314;48.088;11.642;2024-01-06T00:14:48;13.70;;;6.53;;
26977;SDS011;56314;48.088;11.642;2024-01-06T00:17:14;11.73;;;6.45;;
26977;SDS011;56314;48.088;11.642;2024-01-06T00:19:40;10.23;;;6.53;;
26977;SDS011;56314;48.088;11.642;2024-01-06T00:22:06;12.30;;;6.63;;
26977;SDS011;56314;48.088;11.642;2024-01-06T00:24:31;12.88;;;6.97;;
26977;SDS011;56314;48.088;11.642;2024-01-06T00:26:56;12.50;;;7.13;;
26977;SDS011;56314;48.088;11.642;2024-01-06T00:29:22;12.50;;;7.57;;
26977;SDS011;56314;48.088;11.642;2024-01-06T00:31:47;12.63;;;7.63;;
26977;SDS011;56314;48.088;11.642;2024-01-06T00:34:13;11.88;;;6.78;;
26977;SDS011;56314;48.088;11.642;2024-01-06T00:36:38;13.55;;;7.65;;
26977;SDS011;56314;48.088;11.642;2024-01-06T00:39:03;11.82;;;7.07;;
26977;SDS011;56314;48.088;11.642;2024-01-06T00:41:29;10.77;;;6.85;;
26977;SDS011;56314;48.088;11.642;2024-01-06T00:43:55;9.15;;;6.38;;
26977;SDS011;56314;48.088;11.642;2024-01-06T00:46:20;10.55;;;6.07;;
26977;SDS011;56314;48.088;11.642;2024-01-06T00:48:45;11.23;;;5.72;;
26977;SDS011;56314;48.088;11.642;2024-01-06T00:51:11;7.07;;;4.82;;
26977;SDS011;56314;48.088;11.642;2024-01-06T00:53:36;10.80;;;5.63;;
26977;SDS011;56314;48.088;11.642;2024-01-06T00:56:01;7.82;;;4.63;;
26977;SDS011;56314;48.088;11.642;2024-01-06T00:58:27;7.43;;;4.15;;
26977;SDS011;56314;48.088;11.642;2024-01-06T01:00:53;5.90;;;3.60;;
26977;SDS011;56314;48.088;11.642;2024-01-06T01:03:18;7.65;;;4.13;;
26977;SDS011;56314;48.088;11.642;2024-01-06T01:05:43;11.63;;;3.70;;
26977;SDS011;56314;48.088;11.642;2024-01-06T01:08:09;6.93;;;4.38;;
26977;SDS011;56314;48.088;11.642;2024-01-06T01:10:34;5.93;;;4.25;;
26977;SDS011;56314;48.088;11.642;2024-01-06T01:12:59;9.70;;;5.78;;
26977;SDS011;56314;48.088;11.642;2024-01-06T01:15:25;7.80;;;5.07;;
26977;SDS011;56314;48.088;11.642;2024-01-06T01:17:50;7.63;;;5.15;;
26977;SDS011;56314;48.088;11.642;2024-01-06T01:20:16;9.07;;;5.30;;
26977;SDS011;56314;48.088;11.642;2024-01-06T01:22:41;9.75;;;5.72;;
26977;SDS011;56314;48.088;11.642;2024-01-06T01:25:06;8.10;;;5.72;;
26977;SDS011;56314;48.088;11.642;2024-01-06T01:27:32;8.30;;;5.30;;
26977;SDS011;56314;48.088;11.642;2024-01-06T01:29:58;8.15;;;5.00;;
26977;SDS011;56314;48.088;11.642;2024-01-06T01:32:24;7.07;;;4.55;;
26977;SDS011;56314;48.088;11.642;2024-01-06T01:34:49;7.85;;;4.57;;
26977;SDS011;56314;48.088;11.642;2024-01-06T01:37:15;7.00;;;4.38;;
26977;SDS011;56314;48.088;11.642;2024-01-06T01:39:40;7.72;;;4.25;;
26977;SDS011;56314;48.088;11.642;2024-01-06T01:42:06;5.70;;;3.90;;
26977;SDS011;56314;48.088;11.642;2024-01-06T01:44:31;5.82;;;3.50;;
26977;SDS011;56314;48.088;11.642;2024-01-06T01:46:57;4.82;;;3.00;;
26977;SDS011;56314;48.088;11.642;2024-01-06T01:49:23;8.00;;;3.35;;
26977;SDS011;56314;48.088;11.642;2024-01-06T01:51:48;4.35;;;2.60;;
26977;SDS011;56314;48.088;11.642;2024-01-06T01:54:14;3.50;;;2.33;;
26977;SDS011;56314;48.088;11.642;2024-01-06T01:56:40;4.60;;;2.90;;
26977;SDS011;56314;48.088;11.642;2024-01-06T01:59:10;5.07;;;2.85;;
26977;SDS011;56314;48.088;11.642;2024-01-06T02:01:37;9.18;;;3.33;;
26977;SDS011;56314;48.088;11.642;2024-01-06T02:04:02;7.00;;;3.72;;
26977;SDS011;56314;48.088;11.642;2024-01-06T02:06:28;5.45;;;3.95;;
26977;SDS011;56314;48.088;11.642;2024-01-06T02:08:53;6.88;;;4.05;;
26977;SDS011;56314;48.088;11.642;2024-01-06T02:11:19;9.98;;;5.53;;
26977;SDS011;56314;48.088;11.642;2024-01-06T02:13:44;7.72;;;5.63;;
26977;SDS011;56314;48.088;11.642;2024-01-06T02:16:10;10.82;;;6.55;;
26977;SDS011;56314;48.088;11.642;2024-01-06T02:18:35;9.48;;;5.07;;
26977;SDS011;56314;48.088;11.642;2024-01-06T02:21:01;7.45;;;4.65;;
26977;SDS011;56314;48.088;11.642;2024-01-06T02:23:27;11.45;;;5.40;;
26977;SDS011;56314;48.088;11.642;2024-01-06T02:25:53;13.00;;;6.03;;
26977;SDS011;56314;48.088;11.642;2024-01-06T02:28:19;6.40;;;4.20;;
26977;SDS011;56314;48.088;11.642;2024-01-06T02:30:44;6.70;;;4.30;;
26977;SDS011;56314;48.088;11.642;2024-01-06T02:33:10;9.57;;;5.22;;
26977;SDS011;56314;48.088;11.642;2024-01-06T02:35:35;6.22;;;4.03;;
26977;SDS011;56314;48.088;11.642;2024-01-06T02:38:01;5.53;;;3.60;;
26977;SDS011;56314;48.088;11.642;2024-01-06T02:40:27;8.45;;;4.40;;
26977;SDS011;56314;48.088;11.642;2024-01-06T02:42:52;6.05;;;4.15;;
26977;SDS011;56314;48.088;11.642;2024-01-06T02:45:18;8.52;;;4.45;;
26977;SDS011;56314;48.088;11.642;2024-01-06T02:47:43;8.65;;;4.82;;
26977;SDS011;56314;48.088;11.642;2024-01-06T02:50:08;7.40;;;4.32;;
26977;SDS011;56314;48.088;11.642;2024-01-06T02:52:34;9.68;;;4.57;;
26977;SDS011;56314;48.088;11.642;2024-01-06T02:54:59;7.60;;;4.78;;
26977;SDS011;56314;48.088;11.642;2024-01-06T02:57:26;6.47;;;3.35;;
26977;SDS011;56314;48.088;11.642;2024-01-06T02:59:52;5.97;;;3.30;;
26977;SDS011;56314;48.088;11.642;2024-01-06T03:02:18;4.70;;;3.03;;
26977;SDS011;56314;48.088;11.642;2024-01-06T03:04:43;4.35;;;2.80;;
26977;SDS011;56314;48.088;11.642;2024-01-06T03:07:08;5.93;;;2.88;;
26977;SDS011;56314;48.088;11.642;2024-01-06T03:09:34;3.95;;;2.50;;
26977;SDS011;56314;48.088;11.642;2024-01-06T03:11:59;3.22;;;2.53;;
26977;SDS011;56314;48.088;11.642;2024-01-06T03:14:24;3.13;;;2.30;;
26977;SDS011;56314;48.088;11.642;2024-01-06T03:16:50;3.40;;;2.13;;
26977;SDS011;56314;48.088;11.642;2024-01-06T03:19:15;2.80;;;1.60;;
26977;SDS011;56314;48.088;11.642;2024-01-06T03:21:40;2.05;;;1.50;;
26977;SDS011;56314;48.088;11.642;2024-01-06T03:24:06;2.97;;;1.83;;
26977;SDS011;56314;48.088;11.642;2024-01-06T03:26:32;3.95;;;1.80;;
26977;SDS011;56314;48.088;11.642;2024-01-06T03:28:58;3.20;;;1.80;;
26977;SDS011;56314;48.088;11.642;2024-01-06T03:31:24;2.45;;;1.73;;
26977;SDS011;56314;48.088;11.642;2024-01-06T03:33:49;2.40;;;1.80;;
26977;SDS011;56314;48.088;11.642;2024-01-06T03:36:16;3.83;;;1.95;;
26977;SDS011;56314;48.088;11.642;2024-01-06T03:38:42;3.78;;;1.90;;
26977;SDS011;56314;48.088;11.642;2024-01-06T03:41:07;3.50;;;2.30;;
26977;SDS011;56314;48.088;11.642;2024-01-06T03:43:32;2.95;;;2.63;;
26977;SDS011;56314;48.088;11.642;2024-01-06T03:45:58;4.72;;;2.40;;
26977;SDS011;56314;48.088;11.642;2024-01-06T03:48:25;3.22;;;2.47;;
26977;SDS011;56314;48.088;11.642;2024-01-06T03:50:50;4.32;;;2.00;;
26977;SDS011;56314;48.088;11.642;2024-01-06T03:53:16;2.67;;;2.25;;
26977;SDS011;56314;48.088;11.642;2024-01-06T03:55:41;4.53;;;2.55;;
26977;SDS011;56314;48.088;11.642;2024-01-06T03:58:06;3.83;;;2.20;;
26977;SDS011;56314;48.088;11.642;2024-01-06T04:00:32;2.40;;;2.05;;
26977;SDS011;56314;48.088;11.642;2024-01-06T04:02:57;2.67;;;2.00;;
26977;SDS011;56314;48.088;11.642;2024-01-06T04:05:22;1.95;;;1.75;;
26977;SDS011;56314;48.088;11.642;2024-01-06T04:07:48;2.63;;;1.80;;
26977;SDS011;56314;48.088;11.642;2024-01-06T04:10:13;2.17;;;1.58;;
26977;SDS011;56314;48.088;11.642;2024-01-06T04:12:39;2.67;;;1.90;;
26977;SDS011;56314;48.088;11.642;2024-01-06T04:15:04;4.45;;;1.38;;
26977;SDS011;56314;48.088;11.642;2024-01-06T04:17:30;2.30;;;1.40;;
26977;SDS011;56314;48.088;11.642;2024-01-06T04:19:55;1.98;;;1.13;;
26977;SDS011;56314;48.088;11.642;2024-01-06T04:22:21;2.55;;;1.55;;
26977;SDS011;56314;48.088;11.642;2024-01-06T04:24:47;1.40;;;1.30;;
26977;SDS011;56314;48.088;11.642;2024-01-06T04:27:12;1.75;;;1.23;;
26977;SDS011;56314;48.088;11.642;2024-01-06T04:29:37;2.58;;;1.20;;
26977;SDS011;56314;48.088;11.642;2024-01-06T04:32:04;1.10;;;1.00;;
26977;SDS011;56314;48.088;11.642;2024-01-06T04:34:30;1.40;;;0.82;;
26977;SDS011;56314;48.088;11.642;2024-01-06T04:36:55;0.95;;;0.80;;
26977;SDS011;56314;48.088;11.642;2024-01-06T04:39:20;0.80;;;0.80;;
26977;SDS011;56314;48.088;11.642;2024-01-06T04:41:46;0.80;;;0.70;;
26977;SDS011;56314;48.088;11.642;2024-01-06T04:44:11;0.82;;;0.77;;
26977;SDS011;56314;48.088;11.642;2024-01-06T04:46:36;0.63;;;0.55;;
26977;SDS011;56314;48.088;11.642;2024-01-06T04:49:02;1.10;;;0.80;;
26977;SDS011;56314;48.088;11.642;2024-01-06T04:51:27;0.50;;;0.50;;
26977;SDS011;56314;48.088;11.642;2024-01-06T04:53:53;1.67;;;0.60;;
26977;SDS011;56314;48.088;11.642;2024-01-06T04:56:18;0.55;;;0.45;;
26977;SDS011;56314;48.088;11.642;2024-01-06T04:58:43;0.80;;;0.77;;
26977;SDS011;56314;48.088;11.642;2024-01-06T05:01:09;0.73;;;0.60;;
26977;SDS011;56314;48.088;11.642;2024-01-06T05:03:34;1.23;;;0.90;;
26977;SDS011;56314;48.088;11.642;2024-01-06T05:06:00;1.20;;;0.68;;
26977;SDS011;56314;48.088;11.642;2024-01-06T05:08:25;1.27;;;0.80;;
26977;SDS011;56314;48.088;11.642;2024-01-06T05:10:52;0.85;;;0.77;;
26977;SDS011;56314;48.088;11.642;2024-01-06T05:13:17;0.50;;;0.50;;
26977;SDS011;56314;48.088;11.642;2024-01-06T05:15:43;0.50;;;0.50;;
26977;SDS011;56314;48.088;11.642;2024-01-06T05:18:08;0.50;;;0.50;;
26977;SDS011;56314;48.088;11.642;2024-01-06T05:20:33;0.85;;;0.80;;
26977;SDS011;56314;48.088;11.642;2024-01-06T05:22:59;1.13;;;0.63;;
26977;SDS011;56314;48.088;11.642;2024-01-06T05:25:24;2.72;;;0.60;;
26977;SDS011;56314;48.088;11.642;2024-01-06T05:27:49;0.98;;;0.70;;
26977;SDS011;56314;48.088;11.642;2024-01-06T05:30:15;0.98;;;0.68;;
26977;SDS011;56314;48.088;11.642;2024-01-06T05:32:40;0.40;;;0.40;;
26977;SDS011;56314;48.088;11.642;2024-01-06T05:35:06;0.43;;;0.43;;
26977;SDS011;56314;48.088;11.642;2024-01-06T05:37:32;2.22;;;0.65;;
26977;SDS011;56314;48.088;11.642;2024-01-06T05:39:57;0.63;;;0.63;;
26977;SDS011;56314;48.088;11.642;2024-01-06T05:42:26;0.47;;;0.45;;
26977;SDS011;56314;48.088;11.642;2024-01-06T05:44:52;0.93;;;0.70;;
26977;SDS011;56314;48.088;11.642;2024-01-06T05:47:17;0.93;;;0.80;;
26977;SDS011;56314;48.088;11.642;2024-01-06T05:49:43;0.82;;;0.65;;
26977;SDS011;56314;48.088;11.642;2024-01-06T05:52:11;1.02;;;0.80;;
26977;SDS011;56314;48.088;11.642;2024-01-06T05:54:39;0.60;;;0.60;;
26977;SDS011;56314;48.088;11.642;2024-01-06T05:57:06;0.90;;;0.90;;
26977;SDS011;56314;48.088;11.642;2024-01-06T05:59:34;0.85;;;0.80;;
26977;SDS011;56314;48.088;11.642;2024-01-06T06:02:00;1.30;;;0.90;;
26977;SDS011;56314;48.088;11.642;2024-01-06T06:04:26;1.40;;;1.00;;
26977;SDS011;56314;48.088;11.642;2024-01-06T06:06:51;1.80;;;0.88;;
26977;SDS011;56314;48.088;11.642;2024-01-06T06:09:17;0.60;;;0.60;;
26977;SDS011;56314;48.088;11.642;2024-01-06T06:11:42;0.80;;;0.80;;
26977;SDS011;56314;48.088;11.642;2024-01-06T06:14:08;0.93;;;0.52;;
26977;SDS011;56314;48.088;11.642;2024-01-06T06:16:34;0.60;;;0.60;;
26977;SDS011;56314;48.088;11.642;2024-01-06T06:18:59;0.75;;;0.70;;
26977;SDS011;56314;48.088;11.642;2024-01-06T06:21:24;2.63;;;0.68;;
26977;SDS011;56314;48.088;11.642;2024-01-06T06:23:50;0.70;;;0.60;;
26977;SDS011;56314;48.088;11.642;2024-01-06T06:26:15;0.50;;;0.50;;
26977;SDS011;56314;48.088;11.642;2024-01-06T06:28:41;0.60;;;0.60;;
26977;SDS011;56314;48.088;11.642;2024-01-06T06:31:06;0.95;;;0.68;;
26977;SDS011;56314;48.088;11.642;2024-01-06T06:33:32;0.93;;;0.75;;
26977;SDS011;56314;48.088;11.642;2024-01-06T06:35:58;1.85;;;1.10;;
26977;SDS011;56314;48.088;11.642;2024-01-06T06:38:25;1.48;;;0.90;;
26977;SDS011;56314;48.088;11.642;2024-01-06T06:40:50;1.35;;;1.25;;
26977;SDS011;56314;48.088;11.642;2024-01-06T06:43:16;1.95;;;1.52;;
26977;SDS011;56314;48.088;11.642;2024-01-06T06:45:41;2.53;;;1.80;;
26977;SDS011;56314;48.088;11.642;2024-01-06T06:48:06;2.05;;;1.30;;
26977;SDS011;56314;48.088;11.642;2024-01-06T06:50:32;2.45;;;1.77;;
26977;SDS011;56314;48.088;11.642;2024-01-06T06:52:58;2.25;;;1.63;;
26977;SDS011;56314;48.088;11.642;2024-01-06T06:55:24;3.30;;;1.73;;
26977;SDS011;56314;48.088;11.642;2024-01-06T06:57:49;1.73;;;1.60;;
26977;SDS011;56314;48.088;11.642;2024-01-06T07:00:14;2.30;;;1.45;;
26977;SDS011;56314;48.088;11.642;2024-01-06T07:02:41;1.65;;;1.55;;
26977;SDS011;56314;48.088;11.642;2024-01-06T07:05:06;2.22;;;1.73;;
26977;SDS011;56314;48.088;11.642;2024-01-06T07:07:32;1.98;;;1.65;;
26977;SDS011;56314;48.088;11.642;2024-01-06T07:09:59;3.58;;;1.80;;
26977;SDS011;56314;48.088;11.642;2024-01-06T07:12:26;2.15;;;1.80;;
26977;SDS011;56314;48.088;11.642;2024-01-06T07:14:52;2.88;;;1.95;;
26977;SDS011;56314;48.088;11.642;2024-01-06T07:17:17;4.07;;;2.15;;
26977;SDS011;56314;48.088;11.642;2024-01-06T07:19:43;2.85;;;1.80;;
26977;SDS011;56314;48.088;11.642;2024-01-06T07:22:08;2.55;;;2.13;;
26977;SDS011;56314;48.088;11.642;2024-01-06T07:24:34;3.60;;;1.95;;
26977;SDS011;56314;48.088;11.642;2024-01-06T07:27:01;4.15;;;2.40;;
26977;SDS011;56314;48.088;11.642;2024-01-06T07:29:28;3.22;;;2.20;;
26977;SDS011;56314;48.088;11.642;2024-01-06T07:31:53;5.65;;;2.47;;
26977;SDS011;56314;48.088;11.642;2024-01-06T07:34:18;3.17;;;2.35;;
26977;SDS011;56314;48.088;11.642;2024-01-06T07:36:44;4.13;;;3.22;;
26977;SDS011;56314;48.088;11.642;2024-01-06T07:39:09;5.53;;;3.30;;
26977;SDS011;56314;48.088;11.642;2024-01-06T07:41:34;5.07;;;3.28;;
26977;SDS011;56314;48.088;11.642;2024-01-06T07:44:00;7.93;;;3.63;;
26977;SDS011;56314;48.088;11.642;2024-01-06T07:46:27;6.07;;;3.20;;
26977;SDS011;56314;48.088;11.642;2024-01-06T07:48:53;5.55;;;3.03;;
26977;SDS011;56314;48.088;11.642;2024-01-06T07:51:18;5.55;;;2.88;;
26977;SDS011;56314;48.088;11.642;2024-01-06T07:53:43;2.92;;;2.50;;
26977;SDS011;56314;48.088;11.642;2024-01-06T07:56:09;3.45;;;2.50;;
26977;SDS011;56314;48.088;11.642;2024-01-06T07:58:34;2.95;;;2.63;;
26977;SDS011;56314;48.088;11.642;2024-01-06T08:01:00;3.03;;;2.58;;
26977;SDS011;56314;48.088;11.642;2024-01-06T08:03:26;7.72;;;2.88;;
26977;SDS011;56314;48.088;11.642;2024-01-06T08:05:52;4.88;;;2.75;;
26977;SDS011;56314;48.088;11.642;2024-01-06T08:08:17;3.28;;;2.38;;
26977;SDS011;56314;48.088;11.642;2024-01-06T08:10:43;5.25;;;2.53;;
26977;SDS011;56314;48.088;11.642;2024-01-06T08:13:09;3.72;;;2.22;;
26977;SDS011;56314;48.088;11.642;2024-01-06T08:15:34;3.60;;;2.47;;
26977;SDS011;56314;48.088;11.642;2024-01-06T08:18:00;2.90;;;2.20;;
26977;SDS011;56314;48.088;11.642;2024-01-06T08:20:25;6.03;;;1.85;;
26977;SDS011;56314;48.088;11.642;2024-01-06T08:22:51;3.65;;;2.20;;
26977;SDS011;56314;48.088;11.642;2024-01-06T08:25:16;3.88;;;1.95;;
26977;SDS011;56314;48.088;11.642;2024-01-06T08:27:42;3.72;;;2.03;;
26977;SDS011;56314;48.088;11.642;2024-01-06T08:30:10;4.05;;;1.90;;
26977;SDS011;56314;48.088;11.642;2024-01-06T08:32:37;3.72;;;1.70;;
26977;SDS011;56314;48.088;11.642;2024-01-06T08:35:02;2.88;;;1.73;;
26977;SDS011;56314;48.088;11.642;2024-01-06T08:37:28;3.38;;;2.00;;
26977;SDS011;56314;48.088;11.642;2024-01-06T08:39:54;1.90;;;1.80;;
26977;SDS011;56314;48.088;11.642;2024-01-06T08:42:20;1.70;;;1.60;;
26977;SDS011;56314;48.088;11.642;2024-01-06T08:44:45;5.80;;;2.40;;
26977;SDS011;56314;48.088;11.642;2024-01-06T08:47:11;3.75;;;2.33;;
26977;SDS011;56314;48.088;11.642;2024-01-06T08:49:37;3.80;;;2.45;;
26977;SDS011;56314;48.088;11.642;2024-01-06T08:52:02;5.72;;;2.70;;
26977;SDS011;56314;48.088;11.642;2024-01-06T08:54:28;3.63;;;2.28;;
26977;SDS011;56314;48.088;11.642;2024-01-06T08:56:54;5.03;;;2.78;;
26977;SDS011;56314;48.088;11.642;2024-01-06T08:59:20;4.72;;;2.40;;
26977;SDS011;56314;48.088;11.642;2024-01-06T09:01:45;3.05;;;2.45;;
26977;SDS011;56314;48.088;11.642;2024-01-06T09:04:11;6.35;;;2.80;;
26977;SDS011;56314;48.088;11.642;2024-01-06T09:06:37;3.70;;;2.97;;
26977;SDS011;56314;48.088;11.642;2024-01-06T09:09:03;3.80;;;3.00;;
26977;SDS011;56314;48.088;11.642;2024-01-06T09:11:28;6.90;;;3.65;;
26977;SDS011;56314;48.088;11.642;2024-01-06T09:13:54;5.63;;;3.50;;
26977;SDS011;56314;48.088;11.642;2024-01-06T09:16:19;6.45;;;4.15;;
26977;SDS011;56314;48.088;11.642;2024-01-06T09:18:45;5.97;;;3.25;;
26977;SDS011;56314;48.088;11.642;2024-01-06T09:21:10;6.75;;;3.65;;
26977;SDS011;56314;48.088;11.642;2024-01-06T09:23:36;3.97;;;3.20;;
26977;SDS011;56314;48.088;11.642;2024-01-06T09:26:01;6.28;;;3.58;;
26977;SDS011;56314;48.088;11.642;2024-01-06T09:28:27;5.90;;;3.50;;
26977;SDS011;56314;48.088;11.642;2024-01-06T09:30:52;5.72;;;4.07;;
26977;SDS011;56314;48.088;11.642;2024-01-06T09:33:20;7.20;;;3.60;;
26977;SDS011;56314;48.088;11.642;2024-01-06T09:35:46;5.28;;;3.75;;
26977;SDS011;56314;48.088;11.642;2024-01-06T09:38:12;3.42;;;2.80;;
26977;SDS011;56314;48.088;11.642;2024-01-06T09:40:41;4.25;;;3.03;;
26977;SDS011;56314;48.088;11.642;2024-01-06T09:43:11;8.18;;;2.90;;
26977;SDS011;56314;48.088;11.642;2024-01-06T09:45:36;4.32;;;2.65;;
26977;SDS011;56314;48.088;11.642;2024-01-06T09:48:12;7.75;;;3.05;;
26977;SDS011;56314;48.088;11.642;2024-01-06T09:50:41;9.57;;;3.35;;
26977;SDS011;56314;48.088;11.642;2024-01-06T09:53:10;6.03;;;3.05;;
26977;SDS011;56314;48.088;11.642;2024-01-06T09:55:37;5.05;;;3.05;;
26977;SDS011;56314;48.088;11.642;2024-01-06T09:58:03;4.85;;;2.42;;
26977;SDS011;56314;48.088;11.642;2024-01-06T10:00:31;7.03;;;2.83;;
26977;SDS011;56314;48.088;11.642;2024-01-06T10:02:56;7.40;;;3.10;;
26977;SDS011;56314;48.088;11.642;2024-01-06T10:05:23;5.95;;;2.17;;
26977;SDS011;56314;48.088;11.642;2024-01-06T10:07:48;3.70;;;2.60;;
26977;SDS011;56314;48.088;11.642;2024-01-06T10:10:14;3.92;;;2.40;;
26977;SDS011;56314;48.088;11.642;2024-01-06T10:12:40;5.90;;;2.53;;
26977;SDS011;56314;48.088;11.642;2024-01-06T10:15:07;7.10;;;3.03;;
26977;SDS011;56314;48.088;11.642;2024-01-06T10:17:40;4.45;;;2.30;;
26977;SDS011;56314;48.088;11.642;2024-01-06T10:20:10;4.20;;;3.03;;
26977;SDS011;56314;48.088;11.642;2024-01-06T10:22:37;6.30;;;2.75;;
26977;SDS011;56314;48.088;11.642;2024-01-06T10:25:05;5.50;;;2.60;;
26977;SDS011;56314;48.088;11.642;2024-01-06T10:27:33;4.60;;;2.65;;
26977;SDS011;56314;48.088;11.642;2024-01-06T10:30:03;6.18;;;3.00;;
26977;SDS011;56314;48.088;11.642;2024-01-06T10:32:33;6.63;;;3.13;;
26977;SDS011;56314;48.088;11.642;2024-01-06T10:34:59;6.72;;;3.38;;
26977;SDS011;56314;48.088;11.642;2024-01-06T10:37:26;6.63;;;3.10;;
26977;SDS011;56314;48.088;11.642;2024-01-06T10:40:11;9.13;;;3.30;;
26977;SDS011;56314;48.088;11.642;2024-01-06T10:42:38;3.28;;;2.67;;
26977;SDS011;56314;48.088;11.642;2024-01-06T10:45:07;9.07;;;3.80;;
26977;SDS011;56314;48.088;11.642;2024-01-06T10:47:35;7.25;;;3.13;;
26977;SDS011;56314;48.088;11.642;2024-01-06T10:50:01;7.43;;;3.42;;
26977;SDS011;56314;48.088;11.642;2024-01-06T10:52:27;6.90;;;3.33;;
26977;SDS011;56314;48.088;11.642;2024-01-06T10:54:56;5.30;;;3.80;;
26977;SDS011;56314;48.088;11.642;2024-01-06T10:57:22;8.25;;;4.20;;
26977;SDS011;56314;48.088;11.642;2024-01-06T10:59:51;4.93;;;3.10;;
26977;SDS011;56314;48.088;11.642;2024-01-06T11:02:18;5.78;;;4.00;;
26977;SDS011;56314;48.088;11.642;2024-01-06T11:04:47;4.57;;;4.10;;
26977;SDS011;56314;48.088;11.642;2024-01-06T11:07:13;7.05;;;4.00;;
26977;SDS011;56314;48.088;11.642;2024-01-06T11:09:43;8.48;;;4.03;;
26977;SDS011;56314;48.088;11.642;2024-01-06T11:14:41;3.90;;;2.88;;
26977;SDS011;56314;48.088;11.642;2024-01-06T11:17:07;5.65;;;3.60;;
26977;SDS011;56314;48.088;11.642;2024-01-06T11:24:48;6.70;;;3.50;;
26977;SDS011;56314;48.088;11.642;2024-01-06T11:27:21;7.50;;;3.85;;
26977;SDS011;56314;48.088;11.642;2024-01-06T11:29:48;8.20;;;3.83;;
26977;SDS011;56314;48.088;11.642;2024-01-06T11:32:19;7.60;;;3.28;;
26977;SDS011;56314;48.088;11.642;2024-01-06T11:34:55;8.65;;;3.72;;
26977;SDS011;56314;48.088;11.642;2024-01-06T11:40:09;4.18;;;3.05;;
26977;SDS011;56314;48.088;11.642;2024-01-06T11:42:44;7.15;;;3.63;;
26977;SDS011;56314;48.088;11.642;2024-01-06T11:45:10;6.47;;;4.05;;
26977;SDS011;56314;48.088;11.642;2024-01-06T11:47:36;9.57;;;4.40;;
26977;SDS011;56314;48.088;11.642;2024-01-06T11:50:02;9.60;;;4.43;;
26977;SDS011;56314;48.088;11.642;2024-01-06T11:52:30;6.90;;;3.75;;
26977;SDS011;56314;48.088;11.642;2024-01-06T11:54:56;6.53;;;3.95;;
26977;SDS011;56314;48.088;11.642;2024-01-06T11:57:22;7.35;;;4.30;;
26977;SDS011;56314;48.088;11.642;2024-01-06T11:59:48;11.95;;;4.45;;
26977;SDS011;56314;48.088;11.642;2024-01-06T12:02:14;10.85;;;4.97;;
26977;SDS011;56314;48.088;11.642;2024-01-06T12:04:45;7.75;;;4.78;;
26977;SDS011;56314;48.088;11.642;2024-01-06T12:07:13;10.13;;;4.70;;
26977;SDS011;56314;48.088;11.642;2024-01-06T12:09:40;9.90;;;5.43;;
26977;SDS011;56314;48.088;11.642;2024-01-06T12:12:05;13.15;;;5.93;;
26977;SDS011;56314;48.088;11.642;2024-01-06T12:14:31;9.38;;;5.28;;
26977;SDS011;56314;48.088;11.642;2024-01-06T12:16:58;12.20;;;5.25;;
26977;SDS011;56314;48.088;11.642;2024-01-06T12:19:28;8.30;;;5.25;;
26977;SDS011;56314;48.088;11.642;2024-01-06T12:21:56;10.07;;;4.65;;
26977;SDS011;56314;48.088;11.642;2024-01-06T12:24:22;7.50;;;5.05;;
26977;SDS011;56314;48.088;11.642;2024-01-06T12:26:47;9.98;;;5.03;;
26977;SDS011;56314;48.088;11.642;2024-01-06T12:29:14;8.23;;;4.45;;
26977;SDS011;56314;48.088;11.642;2024-01-06T12:31:40;11.35;;;5.78;;
26977;SDS011;56314;48.088;11.642;2024-01-06T12:34:06;8.38;;;5.53;;
26977;SDS011;56314;48.088;11.642;2024-01-06T12:36:33;11.70;;;5.80;;
26977;SDS011;56314;48.088;11.642;2024-01-06T12:39:00;10.65;;;6.45;;
26977;SDS011;56314;48.088;11.642;2024-01-06T12:41:27;14.88;;;6.97;;
26977;SDS011;56314;48.088;11.642;2024-01-06T12:43:53;13.43;;;5.80;;
26977;SDS011;56314;48.088;11.642;2024-01-06T12:46:18;10.27;;;5.70;;
26977;SDS011;56314;48.088;11.642;2024-01-06T12:48:43;7.70;;;4.55;;
26977;SDS011;56314;48.088;11.642;2024-01-06T12:51:10;8.82;;;4.30;;
26977;SDS011;56314;48.088;11.642;2024-01-06T12:53:36;9.27;;;4.82;;
26977;SDS011;56314;48.088;11.642;2024-01-06T12:56:01;8.27;;;4.20;;
26977;SDS011;56314;48.088;11.642;2024-01-06T12:58:26;9.93;;;4.30;;
26977;SDS011;56314;48.088;11.642;2024-01-06T13:00:52;10.13;;;4.78;;
26977;SDS011;56314;48.088;11.642;2024-01-06T13:03:17;8.70;;;3.70;;
26977;SDS011;56314;48.088;11.642;2024-01-06T13:05:43;10.57;;;4.35;;
26977;SDS011;56314;48.088;11.642;2024-01-06T13:08:09;8.38;;;4.15;;
26977;SDS011;56314;48.088;11.642;2024-01-06T13:10:35;6.00;;;4.38;;
26977;SDS011;56314;48.088;11.642;2024-01-06T13:13:01;9.98;;;4.80;;
26977;SDS011;56314;48.088;11.642;2024-01-06T13:15:27;7.80;;;5.05;;
26977;SDS011;56314;48.088;11.642;2024-01-06T13:17:52;8.20;;;4.97;;
26977;SDS011;56314;48.088;11.642;2024-01-06T13:20:17;7.05;;;5.05;;
26977;SDS011;56314;48.088;11.642;2024-01-06T13:22:43;7.50;;;4.57;;
26977;SDS011;56314;48.088;11.642;2024-01-06T13:25:08;10.90;;;5.10;;
26977;SDS011;56314;48.088;11.642;2024-01-06T13:27:34;8.98;;;5.35;;
26977;SDS011;56314;48.088;11.642;2024-01-06T13:29:59;10.52;;;4.95;;
26977;SDS011;56314;48.088;11.642;2024-01-06T13:32:25;9.55;;;4.95;;
26977;SDS011;56314;48.088;11.642;2024-01-06T13:34:52;9.38;;;4.97;;
26977;SDS011;56314;48.088;11.642;2024-01-06T13:37:20;10.82;;;5.00;;
26977;SDS011;56314;48.088;11.642;2024-01-06T13:39:49;10.02;;;5.75;;
26977;SDS011;56314;48.088;11.642;2024-01-06T13:42:14;8.82;;;5.28;;
26977;SDS011;56314;48.088;11.642;2024-01-06T13:44:40;15.38;;;7.57;;
26977;SDS011;56314;48.088;11.642;2024-01-06T13:47:05;13.73;;;6.72;;
26977;SDS011;56314;48.088;11.642;2024-01-06T13:49:31;8.38;;;5.65;;
26977;SDS011;56314;48.088;11.642;2024-01-06T13:51:56;7.35;;;5.20;;
26977;SDS011;56314;48.088;11.642;2024-01-06T13:54:23;10.45;;;5.68;;
26977;SDS011;56314;48.088;11.642;2024-01-06T13:56:48;11.35;;;5.00;;
26977;SDS011;56314;48.088;11.642;2024-01-06T13:59:14;6.72;;;4.95;;
26977;SDS011;56314;48.088;11.642;2024-01-06T14:01:40;10.23;;;4.85;;
26977;SDS011;56314;48.088;11.642;2024-01-06T14:04:05;9.43;;;5.95;;
26977;SDS011;56314;48.088;11.642;2024-01-06T14:06:31;13.60;;;5.43;;
26977;SDS011;56314;48.088;11.642;2024-01-06T14:08:58;13.68;;;5.10;;
26977;SDS011;56314;48.088;11.642;2024-01-06T14:11:25;8.63;;;5.75;;
26977;SDS011;56314;48.088;11.642;2024-01-06T14:13:54;10.23;;;5.30;;
26977;SDS011;56314;48.088;11.642;2024-01-06T14:16:19;11.90;;;6.45;;
26977;SDS011;56314;48.088;11.642;2024-01-06T14:18:48;10.15;;;5.10;;
26977;SDS011;56314;48.088;11.642;2024-01-06T14:21:13;11.35;;;6.15;;
26977;SDS011;56314;48.088;11.642;2024-01-06T14:23:40;11.45;;;5.72;;
26977;SDS011;56314;48.088;11.642;2024-01-06T14:26:08;8.40;;;6.05;;
26977;SDS011;56314;48.088;11.642;2024-01-06T14:28:34;8.45;;;5.70;;
26977;SDS011;56314;48.088;11.642;2024-01-06T14:31:00;8.80;;;5.45;;
26977;SDS011;56314;48.088;11.642;2024-01-06T14:33:25;9.73;;;5.85;;
26977;SDS011;56314;48.088;11.642;2024-01-06T14:35:52;8.18;;;5.57;;